Time;durP1;ratioP1;P1;durP2;ratioP2;P2;SDS_P1;SDS_P2;PMS_P1;PMS_P2;Temp;Humidity;BMP_temperature;BMP_pressure;BME280_temperature;BME280_humidity;BME280_pressure;Samples;Min_cycle;Max_cycle;Signal;HPM_P1;HPM_P2
2020/12/08 00:00:09;;;;;;;1.70;1.60;;;;;;;5.17;100.00;95936.34;5110650;28;20192;-88
2020/12/08 00:02:36;;;;;;;1.53;1.43;;;;;;;5.12;100.00;95942.91;5095107;28;20238;-87
2020/12/08 00:05:04;;;;;;;1.83;1.20;;;;;;;5.09;100.00;95943.16;5095028;28;20239;-88
2020/12/08 00:07:30;;;;;;;1.27;1.17;;;;;;;5.10;100.00;95945.66;5094857;28;20249;-87
2020/12/08 00:09:58;;;;;;;1.37;1.27;;;;;;;5.01;100.00;95952.47;5095043;28;20200;-88
2020/12/08 00:12:26;;;;;;;1.40;1.30;;;;;;;4.94;100.00;95956.53;5094181;28;20279;-87
2020/12/08 00:14:53;;;;;;;1.50;1.40;;;;;;;4.98;100.00;95954.50;5094890;28;20332;-88
2020/12/08 00:17:21;;;;;;;1.40;1.20;;;;;;;4.98;100.00;95957.94;5094221;28;20262;-88
2020/12/08 00:19:47;;;;;;;0.97;0.97;;;;;;;5.04;100.00;95961.78;5103900;28;20238;-88
2020/12/08 00:22:14;;;;;;;0.93;0.80;;;;;;;5.06;100.00;95969.47;5106451;28;20300;-87
2020/12/08 00:24:41;;;;;;;1.27;1.27;;;;;;;4.88;100.00;95959.66;5097242;28;20208;-88
2020/12/08 00:27:10;;;;;;;1.00;1.00;;;;;;;4.87;100.00;95965.84;5105162;28;20301;-88
2020/12/08 00:29:37;;;;;;;1.00;1.00;;;;;;;4.91;100.00;95966.41;5107564;28;20261;-87
2020/12/08 00:32:04;;;;;;;0.60;0.60;;;;;;;5.03;100.00;95961.94;5114782;28;20257;-88
2020/12/08 00:34:31;;;;;;;0.80;0.80;;;;;;;5.06;100.00;95959.03;5098053;28;20204;-88
2020/12/08 00:36:58;;;;;;;1.00;1.00;;;;;;;4.90;100.00;95967.38;5094277;28;20196;-87
2020/12/08 00:39:25;;;;;;;0.93;0.93;;;;;;;4.89;100.00;95971.75;5094089;28;20319;-88
2020/12/08 00:41:52;;;;;;;0.97;0.80;;;;;;;4.83;100.00;95963.63;5094286;28;20192;-88
2020/12/08 00:44:20;;;;;;;1.63;1.13;;;;;;;4.95;100.00;95968.63;5094814;28;20614;-88
2020/12/08 00:46:50;;;;;;;2.17;1.33;;;;;;;4.97;100.00;95971.91;5094342;28;20196;-88
2020/12/08 00:49:18;;;;;;;1.10;1.07;;;;;;;4.99;100.00;95962.19;5092946;28;20204;-88
2020/12/08 00:51:45;;;;;;;1.20;1.10;;;;;;;4.96;100.00;95964.25;5104069;28;20279;-88
2020/12/08 00:54:11;;;;;;;1.20;0.87;;;;;;;4.93;100.00;95959.28;5113518;28;20195;-88
2020/12/08 00:56:40;;;;;;;1.13;1.03;;;;;;;4.86;100.00;95958.19;5113926;28;20192;-88
2020/12/08 00:59:13;;;;;;;1.17;1.07;;;;;;;4.87;100.00;95958.03;5113937;28;20649;-88
2020/12/08 01:01:41;;;;;;;0.73;0.73;;;;;;;4.80;100.00;95954.31;5096091;28;20299;-88
2020/12/08 01:04:09;;;;;;;0.80;0.80;;;;;;;4.87;100.00;95949.41;5093041;28;20200;-88
2020/12/08 01:06:37;;;;;;;0.77;0.77;;;;;;;4.80;100.00;95951.69;5092901;28;20283;-87
2020/12/08 01:09:06;;;;;;;0.87;0.87;;;;;;;4.81;100.00;95949.91;5088988;28;20230;-88
2020/12/08 01:11:34;;;;;;;0.60;0.60;;;;;;;4.71;100.00;95953.31;5092627;28;20192;-88
2020/12/08 01:14:02;;;;;;;1.03;0.70;;;;;;;4.64;100.00;95949.59;5093420;28;20684;-88
2020/12/08 01:16:29;;;;;;;0.53;0.53;;;;;;;4.57;100.00;95955.41;5092905;28;20188;-88
2020/12/08 01:18:57;;;;;;;0.53;0.53;;;;;;;4.69;100.00;95946.59;5092415;28;20220;-88
2020/12/08 01:21:24;;;;;;;0.60;0.60;;;;;;;4.77;100.00;95957.16;5094524;28;20332;-88
2020/12/08 01:23:50;;;;;;;0.70;0.70;;;;;;;4.70;100.00;95953.44;5113297;28;20197;-88
2020/12/08 01:26:22;;;;;;;0.50;0.50;;;;;;;4.77;100.00;95955.38;5113583;28;20227;-88
2020/12/08 01:28:49;;;;;;;1.60;0.97;;;;;;;4.65;100.00;95948.63;5112900;28;20667;-87
2020/12/08 01:31:16;;;;;;;0.70;0.70;;;;;;;4.68;100.00;95955.34;5113091;28;20649;-88
2020/12/08 01:33:42;;;;;;;0.80;0.80;;;;;;;4.72;100.00;95947.16;5113012;28;20200;-88
2020/12/08 01:36:11;;;;;;;1.40;1.23;;;;;;;4.72;100.00;95959.34;5112951;28;20737;-87
2020/12/08 01:38:37;;;;;;;1.30;1.20;;;;;;;4.70;100.00;95953.44;5112886;28;20235;-88
2020/12/08 01:41:04;;;;;;;4.70;3.00;;;;;;;4.77;100.00;95949.34;5112563;28;20668;-88
2020/12/08 01:43:31;;;;;;;3.90;3.20;;;;;;;4.80;100.00;95945.66;5112454;28;20419;-87
2020/12/08 01:45:58;;;;;;;5.53;4.40;;;;;;;4.82;100.00;95947.19;5112969;28;20203;-87
2020/12/08 01:48:25;;;;;;;4.70;2.93;;;;;;;4.83;100.00;95948.84;5113165;28;20192;-87
2020/12/08 01:50:52;;;;;;;3.57;2.70;;;;;;;4.77;100.00;95954.56;5112975;28;20228;-87
2020/12/08 01:53:20;;;;;;;0.80;0.80;;;;;;;4.69;100.00;95943.97;5112752;28;20252;-87
2020/12/08 01:55:48;;;;;;;1.03;1.03;;;;;;;4.59;100.00;95945.72;5113130;28;20678;-87
2020/12/08 01:58:20;;;;;;;2.50;2.30;;;;;;;4.69;100.00;95941.38;5112879;28;20222;-86
2020/12/08 02:00:47;;;;;;;1.70;1.60;;;;;;;4.66;100.00;95944.25;5112837;28;20180;-85
2020/12/08 02:03:15;;;;;;;1.40;1.30;;;;;;;4.66;100.00;95944.25;5112635;28;20191;-87
2020/12/08 02:05:42;;;;;;;0.90;0.90;;;;;;;4.55;100.00;95945.16;5113095;28;20202;-87
2020/12/08 02:08:09;;;;;;;0.93;0.93;;;;;;;4.53;100.00;95947.03;5113029;28;20195;-87
2020/12/08 02:10:37;;;;;;;4.23;3.70;;;;;;;4.52;100.00;95943.63;5113395;28;20197;-87
2020/12/08 02:13:04;;;;;;;3.53;2.70;;;;;;;4.64;100.00;95939.19;5112879;28;20666;-87
2020/12/08 02:15:31;;;;;;;2.30;2.10;;;;;;;4.53;100.00;95934.03;5113349;28;20268;-88
2020/12/08 02:17:59;;;;;;;6.93;4.63;;;;;;;4.47;100.00;95940.59;5112681;28;20717;-87
2020/12/08 02:20:27;;;;;;;2.33;1.70;;;;;;;4.57;100.00;95938.03;5113021;28;20256;-87
2020/12/08 02:22:55;;;;;;;0.90;0.90;;;;;;;4.31;100.00;95937.63;5113192;28;20256;-87
2020/12/08 02:25:22;;;;;;;0.87;0.87;;;;;;;4.40;100.00;95936.88;5112940;28;20260;-88
2020/12/08 02:27:48;;;;;;;0.70;0.70;;;;;;;4.35;100.00;95938.19;5112819;28;20199;-88
2020/12/08 02:30:15;;;;;;;0.80;0.80;;;;;;;4.34;100.00;95939.97;5113458;28;20599;-87
2020/12/08 02:32:42;;;;;;;0.70;0.70;;;;;;;4.33;100.00;95940.94;5113260;28;20199;-88
2020/12/08 02:35:09;;;;;;;0.60;0.60;;;;;;;4.24;100.00;95946.88;5113900;28;20231;-88
2020/12/08 02:37:37;;;;;;;1.47;1.37;;;;;;;4.18;100.00;95937.00;5117123;28;20198;-87
2020/12/08 02:40:05;;;;;;;0.60;0.60;;;;;;;3.98;100.00;95939.47;5116402;28;20246;-87
2020/12/08 02:42:32;;;;;;;0.70;0.70;;;;;;;3.77;100.00;95938.59;5116652;28;20195;-87
2020/12/08 02:44:59;;;;;;;1.20;1.00;;;;;;;3.71;100.00;95937.34;5116810;28;20223;-86
2020/12/08 02:47:26;;;;;;;0.53;0.53;;;;;;;3.90;100.00;95941.03;5116237;28;20191;-86
2020/12/08 02:49:54;;;;;;;0.53;0.53;;;;;;;4.22;100.00;95943.56;5116468;28;20236;-86
2020/12/08 02:52:21;;;;;;;0.57;0.57;;;;;;;4.32;100.00;95941.03;5116641;28;20679;-87
2020/12/08 02:54:49;;;;;;;0.50;0.50;;;;;;;4.40;100.00;95946.41;5116413;28;20199;-87
2020/12/08 02:57:17;;;;;;;0.50;0.50;;;;;;;4.36;100.00;95948.44;5116551;28;20191;-87
2020/12/08 02:59:43;;;;;;;0.73;0.73;;;;;;;4.13;100.00;95952.16;5116320;28;20215;-87
2020/12/08 03:02:10;;;;;;;0.80;0.80;;;;;;;3.84;100.00;95950.16;5116245;28;20195;-87
2020/12/08 03:04:37;;;;;;;0.80;0.80;;;;;;;3.84;100.00;95946.72;5116464;28;20223;-86
2020/12/08 03:07:04;;;;;;;0.73;0.73;;;;;;;3.61;100.00;95952.03;5115992;28;20195;-87
2020/12/08 03:09:30;;;;;;;1.50;0.73;;;;;;;3.71;100.00;95954.72;5116182;28;20284;-87
2020/12/08 03:11:58;;;;;;;1.00;0.90;;;;;;;3.89;100.00;95953.22;5116093;28;20249;-87
2020/12/08 03:14:25;;;;;;;0.60;0.60;;;;;;;4.02;100.00;95953.06;5116200;28;20675;-87
2020/12/08 03:16:55;;;;;;;1.20;1.10;;;;;;;4.03;100.00;95957.28;5115921;28;20675;-87
2020/12/08 03:19:22;;;;;;;0.70;0.70;;;;;;;4.15;100.00;95968.44;5116127;28;20236;-87
2020/12/08 03:21:49;;;;;;;0.83;0.83;;;;;;;4.07;100.00;95969.09;5115971;28;20230;-87
2020/12/08 03:24:15;;;;;;;0.60;0.60;;;;;;;4.08;100.00;95972.50;5115873;28;20195;-87
2020/12/08 03:26:42;;;;;;;0.83;0.60;;;;;;;4.09;100.00;95979.34;5115971;28;20260;-87
2020/12/08 03:29:10;;;;;;;0.50;0.50;;;;;;;4.12;100.00;95973.91;5115890;28;20225;-88
2020/12/08 03:31:37;;;;;;;0.57;0.57;;;;;;;4.12;100.00;95982.56;5116268;28;20611;-87
2020/12/08 03:34:03;;;;;;;0.70;0.70;;;;;;;4.19;100.00;95980.25;5116016;28;20191;-88
2020/12/08 03:36:30;;;;;;;0.70;0.70;;;;;;;4.08;100.00;95977.72;5115929;28;20206;-88
2020/12/08 03:38:58;;;;;;;1.17;0.80;;;;;;;4.01;100.00;95980.81;5115627;28;20658;-87
2020/12/08 03:41:25;;;;;;;1.20;1.10;;;;;;;3.94;100.00;95990.06;5116010;28;20686;-87
2020/12/08 03:43:53;;;;;;;0.77;0.77;;;;;;;3.89;100.00;95989.63;5115904;28;20660;-88
2020/12/08 03:46:22;;;;;;;0.93;0.93;;;;;;;4.03;100.00;95996.28;5115133;28;20287;-88
2020/12/08 03:48:48;;;;;;;1.67;1.53;;;;;;;3.98;100.00;96006.22;5114981;28;20195;-88
2020/12/08 03:51:16;;;;;;;2.87;2.60;;;;;;;3.84;100.00;96007.34;5115915;28;20206;-88
2020/12/08 03:53:43;;;;;;;14.03;9.23;;;;;;;3.88;100.00;96013.97;5115443;28;20192;-88
2020/12/08 03:56:12;;;;;;;2.00;1.90;;;;;;;3.90;100.00;96006.03;5115683;28;20562;-88
2020/12/08 03:58:39;;;;;;;1.40;1.20;;;;;;;3.77;100.00;96011.38;5115288;28;20215;-88
2020/12/08 04:01:13;;;;;;;1.20;1.20;;;;;;;3.89;100.00;96017.41;5116184;28;20192;-89
2020/12/08 04:03:40;;;;;;;1.00;1.00;;;;;;;4.02;100.00;96021.47;5115891;28;20187;-88
2020/12/08 04:06:07;;;;;;;1.10;1.10;;;;;;;3.88;100.00;96019.19;5115450;28;20199;-88
2020/12/08 04:08:34;;;;;;;0.93;0.93;;;;;;;3.85;100.00;96024.63;5115534;28;20191;-88
2020/12/08 04:11:01;;;;;;;0.93;0.93;;;;;;;3.72;100.00;96019.56;5115274;28;20203;-88
2020/12/08 04:13:27;;;;;;;1.07;1.07;;;;;;;3.75;100.00;96027.13;5115407;28;20244;-89
2020/12/08 04:15:54;;;;;;;7.40;5.60;;;;;;;3.85;100.00;96021.19;5115373;28;20200;-87
2020/12/08 04:18:21;;;;;;;1.53;1.43;;;;;;;3.88;100.00;96024.38;5115288;28;20327;-86
2020/12/08 04:20:49;;;;;;;1.10;1.10;;;;;;;3.79;100.00;96022.50;5114952;28;20218;-88
2020/12/08 04:23:18;;;;;;;1.70;1.60;;;;;;;3.77;100.00;96021.78;5115020;28;20200;-87
2020/12/08 04:25:45;;;;;;;1.10;1.10;;;;;;;3.80;100.00;96024.97;5115074;28;20570;-88
2020/12/08 04:28:13;;;;;;;0.90;0.90;;;;;;;3.72;100.00;96027.38;5115038;28;20261;-87
2020/12/08 04:30:40;;;;;;;1.00;1.00;;;;;;;3.86;100.00;96031.47;5104780;28;20578;-88
2020/12/08 04:33:08;;;;;;;4.67;2.00;;;;;;;3.84;100.00;96038.53;5098835;28;20195;-88
2020/12/08 04:35:35;;;;;;;2.50;2.30;;;;;;;3.69;100.00;96032.81;5114645;28;20191;-88
2020/12/08 04:38:02;;;;;;;5.50;3.67;;;;;;;3.72;100.00;96035.16;5114696;28;20191;-89
2020/12/08 04:40:29;;;;;;;2.87;2.67;;;;;;;3.81;100.00;96031.84;5115190;28;20640;-88
2020/12/08 04:42:57;;;;;;;3.63;2.60;;;;;;;3.84;100.00;96027.31;5114933;28;20223;-89
2020/12/08 04:45:24;;;;;;;6.57;5.90;;;;;;;3.86;100.00;96030.63;5114382;28;20278;-87
2020/12/08 04:47:51;;;;;;;7.80;7.00;;;;;;;3.90;100.00;96032.84;5114570;28;20203;-88
2020/12/08 04:50:19;;;;;;;15.57;12.90;;;;;;;3.87;100.00;96033.09;5114452;28;20234;-87
2020/12/08 04:52:50;;;;;;;4.57;4.17;;;;;;;3.80;100.00;96032.75;5114606;28;20623;-88
2020/12/08 04:55:19;;;;;;;2.77;2.53;;;;;;;3.65;100.00;96030.56;5114297;28;20274;-88
2020/12/08 04:57:46;;;;;;;4.67;4.27;;;;;;;3.72;100.00;96026.53;5114045;28;20199;-88
2020/12/08 05:00:14;;;;;;;7.07;6.47;;;;;;;3.65;100.00;96027.97;5108293;28;20700;-88
2020/12/08 05:02:47;;;;;;;5.47;5.03;;;;;;;3.66;100.00;96030.44;5097450;28;20249;-87
2020/12/08 05:05:16;;;;;;;4.20;3.80;;;;;;;3.49;100.00;96039.56;5105757;28;20693;-87
2020/12/08 05:07:43;;;;;;;4.13;3.73;;;;;;;3.50;100.00;96036.03;5113039;28;20191;-88
2020/12/08 05:10:10;;;;;;;2.73;2.40;;;;;;;3.44;100.00;96041.72;5113186;28;20286;-86
2020/12/08 05:12:38;;;;;;;1.70;1.60;;;;;;;3.51;100.00;96037.69;5113156;28;20275;-89
2020/12/08 05:15:05;;;;;;;0.73;0.73;;;;;;;3.52;100.00;96038.50;5113156;28;20278;-88
2020/12/08 05:17:32;;;;;;;0.70;0.70;;;;;;;3.29;100.00;96041.16;5113881;28;20207;-88
2020/12/08 05:20:06;;;;;;;0.60;0.60;;;;;;;3.08;100.00;96051.44;5114061;28;20270;-89
2020/12/08 05:22:33;;;;;;;0.50;0.50;;;;;;;3.26;100.00;96043.16;5114106;28;20192;-89
2020/12/08 05:25:10;;;;;;;0.80;0.80;;;;;;;3.31;100.00;96043.63;5113999;28;20203;-87
2020/12/08 05:27:38;;;;;;;10.67;9.03;;;;;;;3.34;100.00;96052.00;5113385;28;20242;-88
2020/12/08 05:30:06;;;;;;;2.70;2.50;;;;;;;3.31;100.00;96047.03;5113764;28;20196;-87
2020/12/08 05:32:36;;;;;;;2.60;2.37;;;;;;;3.25;100.00;96052.69;5113357;28;20725;-87
2020/12/08 05:35:06;;;;;;;1.70;1.60;;;;;;;3.23;100.00;96052.00;5114070;28;20184;-87
2020/12/08 05:37:35;;;;;;;1.33;1.27;;;;;;;3.08;100.00;96051.44;5113357;28;20195;-87
2020/12/08 05:40:08;;;;;;;0.80;0.80;;;;;;;3.15;100.00;96056.94;5112751;28;20227;-87
2020/12/08 05:42:37;;;;;;;1.23;1.13;;;;;;;3.28;100.00;96051.63;5113688;28;20607;-87
2020/12/08 05:45:07;;;;;;;0.63;0.63;;;;;;;3.37;100.00;96050.94;5113660;28;20234;-87
2020/12/08 05:47:43;;;;;;;0.90;0.90;;;;;;;3.44;100.00;96052.09;5113788;28;20217;-87
2020/12/08 05:50:10;;;;;;;1.50;1.37;;;;;;;3.47;100.00;96057.06;5112345;28;20226;-87
2020/12/08 05:52:40;;;;;;;1.87;1.77;;;;;;;3.44;100.00;96053.88;5093057;28;20253;-87
2020/12/08 05:55:08;;;;;;;0.80;0.80;;;;;;;3.31;100.00;96052.22;5093007;28;20280;-87
2020/12/08 05:57:35;;;;;;;0.93;0.83;;;;;;;3.40;100.00;96060.28;5092623;28;20196;-87
2020/12/08 06:00:02;;;;;;;0.67;0.67;;;;;;;3.19;100.00;96062.75;5092760;28;20720;-87
2020/12/08 06:02:31;;;;;;;0.70;0.70;;;;;;;3.30;100.00;96062.75;5092383;28;20195;-87
2020/12/08 06:04:58;;;;;;;0.70;0.70;;;;;;;3.13;100.00;96063.22;5092574;28;20196;-87
2020/12/08 06:07:32;;;;;;;0.53;0.53;;;;;;;3.23;100.00;96067.59;5092840;28;20200;-87
2020/12/08 06:10:10;;;;;;;1.20;0.70;;;;;;;3.27;100.00;96071.59;5091564;28;20198;-86
2020/12/08 06:12:38;;;;;;;2.80;1.80;;;;;;;3.53;100.00;96077.38;5092451;28;20192;-86
2020/12/08 06:15:22;;;;;;;1.50;1.30;;;;;;;3.27;100.00;96079.38;5092419;28;20192;-87
2020/12/08 06:17:50;;;;;;;2.50;2.30;;;;;;;3.34;100.00;96077.97;5091213;28;20763;-87
2020/12/08 06:20:17;;;;;;;2.57;2.37;;;;;;;3.43;100.00;96084.25;5305171;22;20254;-86
2020/12/08 06:22:54;;;;;;;8.40;5.37;;;;;;;3.63;100.00;96084.44;5046959;28;20198;-86
2020/12/08 06:25:21;;;;;;;4.50;3.67;;;;;;;3.60;100.00;96082.06;5048429;28;20205;-85
2020/12/08 06:27:48;;;;;;;4.13;3.40;;;;;;;3.51;100.00;96094.03;5051907;28;20557;-86
2020/12/08 06:30:20;;;;;;;10.93;7.47;;;;;;;3.48;100.00;96083.88;5051809;28;20194;-86
2020/12/08 06:32:47;;;;;;;12.30;11.00;;;;;;;3.43;100.00;96084.25;5052130;28;20182;-85
2020/12/08 06:35:16;;;;;;;11.67;10.47;;;;;;;3.40;100.00;96084.47;5052191;28;20202;-86
2020/12/08 06:37:46;;;;;;;1.83;1.73;;;;;;;3.32;100.00;96087.63;5052068;28;20210;-86
2020/12/08 06:40:15;;;;;;;0.80;0.80;;;;;;;3.12;100.00;96084.91;5052585;28;20659;-86
2020/12/08 06:42:42;;;;;;;2.00;1.90;;;;;;;3.09;100.00;96099.00;5052212;28;20259;-86
2020/12/08 06:45:10;;;;;;;2.00;1.67;;;;;;;3.00;100.00;96100.50;5051767;28;20289;-85
2020/12/08 06:47:37;;;;;;;4.63;4.23;;;;;;;2.99;100.00;96104.03;5051706;28;20194;-85
2020/12/08 06:50:06;;;;;;;11.00;9.97;;;;;;;3.13;100.00;96100.41;5051563;28;20238;-87
2020/12/08 06:52:34;;;;;;;3.20;2.90;;;;;;;3.43;100.00;96101.56;5052076;28;20252;-86
2020/12/08 06:55:02;;;;;;;3.60;2.23;;;;;;;3.47;100.00;96090.84;5051880;28;20591;-87
2020/12/08 06:57:29;;;;;;;2.50;2.30;;;;;;;3.46;100.00;96101.34;5051682;28;20198;-86
2020/12/08 07:00:04;;;;;;;5.90;5.30;;;;;;;3.39;100.00;96103.59;5051574;28;20221;-86
2020/12/08 07:02:32;;;;;;;4.27;3.87;;;;;;;3.50;100.00;96103.59;5049708;28;20237;-85
2020/12/08 07:05:00;;;;;;;9.00;8.17;;;;;;;3.65;100.00;96100.75;5051608;28;20198;-86
2020/12/08 07:07:29;;;;;;;15.20;13.73;;;;;;;3.72;100.00;96105.34;5051924;28;20654;-85
2020/12/08 07:09:59;;;;;;;13.40;12.13;;;;;;;3.67;100.00;96101.44;5051733;28;20220;-85
2020/12/08 07:12:26;;;;;;;8.77;6.80;;;;;;;3.60;100.00;96108.88;5051662;28;20178;-86
2020/12/08 07:14:59;;;;;;;3.17;2.87;;;;;;;3.46;100.00;96104.75;5051899;28;20255;-87
2020/12/08 07:17:30;;;;;;;7.53;3.17;;;;;;;3.55;100.00;96104.06;5051704;28;20577;-86
2020/12/08 07:19:57;;;;;;;1.80;1.70;;;;;;;3.49;100.00;96103.72;5051425;28;20273;-86
2020/12/08 07:22:24;;;;;;;1.87;1.53;;;;;;;3.41;100.00;96104.31;5053936;28;20265;-86
2020/12/08 07:24:50;;;;;;;0.93;0.83;;;;;;;3.29;100.00;96102.63;5055263;28;20208;-86
2020/12/08 07:27:18;;;;;;;1.63;0.80;;;;;;;3.47;100.00;96103.00;5055118;28;20551;-86
2020/12/08 07:29:45;;;;;;;4.00;3.60;;;;;;;3.56;100.00;96091.88;5055459;28;20205;-86
2020/12/08 07:32:12;;;;;;;28.30;23.90;;;;;;;3.62;100.00;96103.59;5054979;28;20765;-86
2020/12/08 07:34:49;;;;;;;11.73;9.27;;;;;;;3.67;100.00;96099.69;5054849;28;20198;-86
2020/12/08 07:37:19;;;;;;;8.57;7.77;;;;;;;3.72;100.00;96107.13;5054931;28;20194;-86
2020/12/08 07:39:46;;;;;;;2.50;2.30;;;;;;;3.69;100.00;96113.38;5054702;28;20222;-86
2020/12/08 07:42:12;;;;;;;1.63;1.53;;;;;;;3.75;100.00;96114.69;5055054;28;20202;-86
2020/12/08 07:44:40;;;;;;;1.60;1.50;;;;;;;3.71;100.00;96121.06;5054742;28;20202;-86
2020/12/08 07:47:13;;;;;;;2.03;1.83;;;;;;;3.90;100.00;96126.47;5054630;28;20194;-86
2020/12/08 07:49:40;;;;;;;3.10;2.87;;;;;;;3.77;100.00;96121.38;5034801;28;20226;-86
2020/12/08 07:52:07;;;;;;;5.17;4.20;;;;;;;3.86;100.00;96127.66;5034733;28;20191;-87
2020/12/08 07:54:34;;;;;;;3.47;3.17;;;;;;;3.96;100.00;96130.38;5035323;28;20207;-87
2020/12/08 07:57:00;;;;;;;6.77;5.53;;;;;;;4.02;100.00;96128.09;5034805;28;20245;-88
2020/12/08 07:59:27;;;;;;;53.97;30.73;;;;;;;4.07;100.00;96132.94;5035016;28;20714;-87
2020/12/08 08:01:56;;;;;;;32.23;21.97;;;;;;;4.04;100.00;96128.78;5054261;28;20292;-88
2020/12/08 08:04:23;;;;;;;26.57;17.23;;;;;;;4.18;100.00;96129.47;5054786;28;20202;-87
2020/12/08 08:06:49;;;;;;;3.57;3.23;;;;;;;4.11;100.00;96133.50;5054810;28;20289;-87
2020/12/08 08:09:16;;;;;;;2.60;2.40;;;;;;;4.14;100.00;96130.66;5055016;28;20587;-88
2020/12/08 08:11:43;;;;;;;2.77;2.57;;;;;;;3.96;100.00;96139.00;5054720;28;20244;-88
2020/12/08 08:14:10;;;;;;;5.30;3.40;;;;;;;3.96;100.00;96136.38;5054901;28;20652;-88
2020/12/08 08:16:37;;;;;;;5.30;4.00;;;;;;;3.98;100.00;96144.06;5054713;28;20665;-88
2020/12/08 08:19:05;;;;;;;5.10;4.00;;;;;;;4.01;100.00;96147.22;5054458;28;20287;-88
2020/12/08 08:21:32;;;;;;;2.67;2.30;;;;;;;4.16;100.00;96145.22;5054330;28;20270;-88
2020/12/08 08:23:59;;;;;;;5.53;5.00;;;;;;;4.31;100.00;96144.94;5054818;28;20194;-88
2020/12/08 08:26:26;;;;;;;8.17;7.20;;;;;;;4.54;100.00;96143.91;5054569;28;20198;-88
2020/12/08 08:28:54;;;;;;;15.47;9.63;;;;;;;4.60;100.00;96142.56;5054467;28;20194;-88
2020/12/08 08:31:21;;;;;;;9.07;6.70;;;;;;;4.55;100.00;96147.34;5054180;28;20312;-88
2020/12/08 08:33:47;;;;;;;13.23;10.70;;;;;;;4.76;100.00;96145.59;5053455;28;20198;-87
2020/12/08 08:36:15;;;;;;;5.73;5.00;;;;;;;4.59;100.00;96148.75;5054443;28;20669;-88
2020/12/08 08:38:42;;;;;;;2.37;1.70;;;;;;;4.55;100.00;96155.97;5054297;28;20186;-88
2020/12/08 08:41:09;;;;;;;3.10;2.80;;;;;;;4.48;100.00;96153.03;5054254;28;20233;-87
2020/12/08 08:43:36;;;;;;;3.30;2.90;;;;;;;4.47;100.00;96154.00;5054362;28;20196;-88
2020/12/08 08:46:02;;;;;;;3.00;2.20;;;;;;;4.73;100.00;96153.66;5054034;28;20220;-88
2020/12/08 08:48:29;;;;;;;4.57;2.80;;;;;;;4.94;100.00;96154.47;5053931;28;20194;-87
2020/12/08 08:50:56;;;;;;;2.60;2.40;;;;;;;5.04;100.00;96146.75;5054442;28;20202;-88
2020/12/08 08:53:24;;;;;;;4.03;2.50;;;;;;;4.77;100.00;96155.88;5053957;28;20202;-88
2020/12/08 08:55:51;;;;;;;6.63;3.73;;;;;;;5.25;100.00;96154.53;5054014;28;20736;-88
2020/12/08 08:58:17;;;;;;;2.80;2.60;;;;;;;5.58;100.00;96152.66;5054117;28;20240;-88
2020/12/08 09:00:44;;;;;;;3.77;2.60;;;;;;;5.71;100.00;96151.50;5053471;28;20264;-88
2020/12/08 09:03:11;;;;;;;5.33;4.27;;;;;;;6.08;100.00;96157.94;5053969;28;20241;-88
2020/12/08 09:05:38;;;;;;;11.90;7.63;;;;;;;5.67;100.00;96150.06;5054499;28;20200;-88
2020/12/08 09:08:05;;;;;;;2.83;2.63;;;;;;;5.68;100.00;96150.91;5053562;28;20198;-88
2020/12/08 09:10:33;;;;;;;2.60;1.70;;;;;;;5.66;100.00;96147.63;5053485;28;20193;-88
2020/12/08 09:13:00;;;;;;;2.33;2.10;;;;;;;5.97;100.00;96148.44;5053385;28;20288;-88
2020/12/08 09:15:27;;;;;;;5.67;3.33;;;;;;;6.09;100.00;96154.38;5053828;28;20221;-87
2020/12/08 09:17:54;;;;;;;5.70;3.77;;;;;;;6.31;99.02;96150.72;5053439;28;20198;-88
2020/12/08 09:20:21;;;;;;;2.53;2.00;;;;;;;6.67;94.41;96150.06;5053136;28;20225;-88
2020/12/08 09:22:48;;;;;;;2.30;2.10;;;;;;;7.01;93.82;96148.81;5053044;28;20201;-88
2020/12/08 09:25:15;;;;;;;2.70;2.20;;;;;;;7.33;91.78;96148.47;5053162;28;20236;-87
2020/12/08 09:27:43;;;;;;;2.20;2.00;;;;;;;7.28;90.95;96154.13;5053174;28;20225;-88
2020/12/08 09:30:10;;;;;;;2.23;2.00;;;;;;;7.34;88.03;96156.19;5052704;28;20194;-88
2020/12/08 09:32:37;;;;;;;1.90;1.80;;;;;;;7.53;85.57;96157.09;5052945;28;20198;-88
2020/12/08 09:35:03;;;;;;;1.40;1.30;;;;;;;7.25;85.78;96151.78;5053546;28;20205;-89
2020/12/08 09:37:30;;;;;;;1.53;1.33;;;;;;;7.41;84.93;96159.03;5053094;28;20201;-88
2020/12/08 09:39:57;;;;;;;1.70;1.60;;;;;;;7.60;85.38;96166.00;5053053;28;20230;-88
2020/12/08 09:42:24;;;;;;;1.90;1.80;;;;;;;7.50;84.92;96168.66;5052990;28;20194;-88
2020/12/08 09:44:52;;;;;;;1.60;1.50;;;;;;;8.01;84.72;96174.41;5052238;28;20560;-88
2020/12/08 09:47:18;;;;;;;3.70;3.30;;;;;;;8.33;82.43;96173.94;5052710;28;20284;-88
2020/12/08 09:49:47;;;;;;;1.90;1.80;;;;;;;8.76;78.56;96175.06;5053259;28;20233;-88
2020/12/08 09:52:13;;;;;;;1.53;1.43;;;;;;;8.80;77.78;96169.41;5052443;28;20233;-89
2020/12/08 09:54:40;;;;;;;16.23;8.43;;;;;;;8.52;79.82;96173.03;5052679;28;20248;-89
2020/12/08 09:57:07;;;;;;;1.70;1.60;;;;;;;8.91;77.80;96167.53;5052524;28;20251;-88
2020/12/08 09:59:35;;;;;;;1.57;1.47;;;;;;;9.16;77.60;96166.75;5052805;28;20257;-88
2020/12/08 10:02:03;;;;;;;1.70;1.60;;;;;;;9.37;76.91;96169.03;5052415;28;20202;-88
2020/12/08 10:04:31;;;;;;;1.90;1.80;;;;;;;9.59;74.93;96165.06;5052919;28;20281;-88
2020/12/08 10:06:58;;;;;;;1.50;1.30;;;;;;;9.73;71.32;96164.50;5052626;28;20285;-88
2020/12/08 10:09:24;;;;;;;1.93;1.77;;;;;;;9.57;72.83;96164.41;5052553;28;20205;-88
2020/12/08 10:11:51;;;;;;;1.33;1.23;;;;;;;9.33;72.70;96166.88;5052982;28;20674;-90
2020/12/08 10:14:18;;;;;;;1.30;1.20;;;;;;;9.19;77.35;96166.44;5052972;28;20226;-88
2020/12/08 10:16:45;;;;;;;2.60;2.10;;;;;;;9.86;73.06;96164.06;5052809;28;20853;-88
2020/12/08 10:19:13;;;;;;;2.23;2.00;;;;;;;9.61;73.56;96163.09;5052502;28;20221;-88
2020/12/08 10:21:40;;;;;;;2.27;2.07;;;;;;;9.24;73.01;96166.78;5052258;28;20653;-88
2020/12/08 10:24:07;;;;;;;2.30;2.10;;;;;;;9.70;73.15;96159.56;5052174;28;20205;-87
2020/12/08 10:26:34;;;;;;;2.70;2.23;;;;;;;10.26;72.34;96153.94;5052234;28;20197;-88
2020/12/08 10:29:01;;;;;;;2.83;2.33;;;;;;;10.16;70.35;96154.03;5052238;28;20193;-88
2020/12/08 10:31:28;;;;;;;5.43;3.73;;;;;;;10.17;70.72;96150.41;5052249;28;20197;-88
2020/12/08 10:33:55;;;;;;;4.73;3.27;;;;;;;9.84;71.51;96150.28;5051894;28;20209;-88
2020/12/08 10:36:22;;;;;;;5.87;4.50;;;;;;;10.05;72.57;96151.69;5052154;28;20197;-88
2020/12/08 10:38:49;;;;;;;1.93;1.60;;;;;;;10.00;70.49;96158.22;5052028;28;20209;-87
2020/12/08 10:41:21;;;;;;;4.20;3.80;;;;;;;10.33;69.86;96160.19;5052066;28;20233;-89
2020/12/08 10:43:48;;;;;;;5.83;2.90;;;;;;;10.58;67.67;96158.44;5052036;28;20247;-88
2020/12/08 10:46:14;;;;;;;1.80;1.70;;;;;;;11.17;65.62;96149.44;5051932;28;20271;-87
2020/12/08 10:48:41;;;;;;;1.77;1.67;;;;;;;11.17;65.66;96149.44;5052306;28;20244;-87
2020/12/08 10:51:08;;;;;;;1.60;1.50;;;;;;;11.41;65.15;96153.06;5051751;28;20297;-87
2020/12/08 10:53:36;;;;;;;2.47;2.27;;;;;;;10.84;65.92;96153.03;5052201;28;20587;-88
2020/12/08 10:56:03;;;;;;;2.80;2.60;;;;;;;11.17;66.90;96159.16;5052383;28;20670;-87
2020/12/08 10:58:30;;;;;;;2.30;2.10;;;;;;;11.41;66.74;96148.59;5055999;28;20286;-88
2020/12/08 11:00:57;;;;;;;2.30;1.80;;;;;;;10.71;63.45;96154.38;5055771;28;20279;-88
2020/12/08 11:03:23;;;;;;;1.97;1.80;;;;;;;10.34;68.21;96154.75;5055927;28;20194;-87
2020/12/08 11:05:50;;;;;;;1.50;1.40;;;;;;;10.98;63.75;96160.31;5055598;28;20700;-88
2020/12/08 11:08:17;;;;;;;4.17;3.77;;;;;;;11.27;64.13;96159.00;5055727;28;20202;-87
2020/12/08 11:10:45;;;;;;;2.17;2.00;;;;;;;11.24;61.07;96159.31;5055617;28;20255;-87
2020/12/08 11:13:12;;;;;;;2.87;2.40;;;;;;;11.38;63.81;96156.84;5055341;28;20198;-88
2020/12/08 11:15:38;;;;;;;1.97;1.87;;;;;;;12.19;61.77;96164.72;5055176;28;20267;-88
2020/12/08 11:18:05;;;;;;;1.40;1.30;;;;;;;12.09;58.94;96164.94;5055643;28;20638;-87
2020/12/08 11:20:32;;;;;;;2.27;2.07;;;;;;;11.97;57.85;96158.38;5055365;28;20230;-87
2020/12/08 11:22:59;;;;;;;2.77;1.57;;;;;;;10.82;60.98;96170.81;5054871;28;20237;-87
2020/12/08 11:25:25;;;;;;;1.93;1.70;;;;;;;11.02;62.96;96164.25;5055128;28;20237;-87
2020/12/08 11:27:53;;;;;;;1.70;1.60;;;;;;;11.61;63.56;96161.41;5054992;28;20206;-87
2020/12/08 11:30:20;;;;;;;1.80;1.70;;;;;;;11.69;60.85;96171.94;5055461;28;20285;-87
2020/12/08 11:32:47;;;;;;;4.60;4.20;;;;;;;11.81;61.17;96161.84;5054949;28;20288;-88
2020/12/08 11:35:15;;;;;;;3.23;2.93;;;;;;;11.90;61.40;96160.88;5055070;28;20670;-88